North Spring Valley, Nevada Weather observations

Data are for 10 minute period ending at time listed.
 Day   Time   Solar   Ave.   Ave.  Ave.  Vector  Max.   Baro.   Total    
  of    of     Rad.   Air    Rel.  Wind   Wind   Wind  Press.  Precip.   
Year   Day            Temp.  Hum.  Speed  Dir.   Gust                    
2014   (PST)  Kw/m2    F      %     mph   deg.    mph    mb.     in.     
-------------------------------------------------------------------------
 106   10:20   1.00   50.0    37    6.5   149    10.4   826.3    0.00 
 106   10:30   1.01   51.8    36    4.2   140     9.4   826.2    0.00 
 106   10:40   1.06   51.4    36    5.2    55    11.7   826.1    0.00 
 106   10:50   0.94   51.3    36    4.2   126    14.3   826.0    0.00 
 106   11:00   1.00   51.2    36    5.0   120    13.9   825.8    0.00 
 106   11:10   0.92   51.2    35    3.2    81     9.1   825.8    0.00 
 106   11:20   0.84   51.4    36    3.3   101     6.6   825.7    0.00 
 106   11:30   1.01   52.3    36    5.1    78    13.3   825.6    0.00 
 106   11:40   1.03   52.8    35    5.0    77     9.4   825.5    0.00 
 106   11:50   1.03   53.7    34    3.3   285     7.7   825.4    0.00 
 106   12:00   0.86   53.9    34    3.5   293     7.5   825.4    0.00 
 106   12:10   1.11   54.6    34    3.8    28     8.3   825.3    0.00 
 106   12:20   0.83   55.5    32    2.2   176     6.1   825.2    0.00 
 106   12:30   0.74   55.4    32    4.1   102     8.9   825.1    0.00 
 106   12:40   0.60   54.7    33    5.2    57    12.1   825.1    0.00 
 106   12:50   0.77   54.6    34    6.0    24    13.6   825.1    0.00 
 106   13:00   0.81   55.3    32    5.2    21    10.2   824.9    0.00 
 106   13:10   0.51   54.7    34    6.3   358    10.1   824.9    0.00 
 106   13:20   0.60   55.0    32    4.5    25     9.6   824.9    0.00 
 106   13:30   0.70   55.2    32    6.0    15    11.5   824.8    0.00 
 106   13:40   1.04   57.0    31    3.6    41    10.2   824.7    0.00 
 106   13:50   0.94   58.0    32    6.3     8    11.5   824.6    0.00 
 106   14:00   0.57   57.5    30    6.3   322    12.9   824.6    0.00 
 106   14:10   0.32   56.2    32    5.6   334    11.8   824.6    0.00 
 106   14:20   0.29   55.7    32    5.2     0    10.1   824.5    0.00 
 106   14:30   0.26   55.9    31    3.9    15     9.3   824.5    0.00 
 106   14:40   0.29   55.9    32    5.4    58    12.9   824.3    0.00 
 106   14:50   0.28   56.2    31    4.3    82    10.0   824.3    0.00 
 106   15:00   0.35   56.9    32    4.3    63     8.2   824.3    0.00 
 106   15:10   0.27   56.5    31    4.4    16     8.9   824.3    0.00 
 106   15:20   0.28   56.4    31    4.8    51     9.3   824.2    0.00 
 106   15:30   0.25   56.4    32    6.1    28    11.4   824.2    0.00 
 106   15:40   0.29   56.6    31    4.5    35    10.3   824.2    0.00 
 106   15:50   0.20   55.6    31    6.3    88    10.4   824.2    0.00 
 106   16:00   0.31   56.7    30    3.6    86     7.0   824.2    0.00 
 106   16:10   0.48   57.7    29    3.5   103     7.5   824.2    0.00 
 106   16:20   0.39   58.3    28    4.2   147     6.1   824.2    0.00 
 106   16:30   0.36   58.6    28    2.4   132     5.5   824.2    0.00 
 106   16:40   0.25   57.6    29    5.0    56    12.1   824.2    0.00 
 106   16:50   0.21   57.1    30    4.9    22     8.1   824.3    0.00 
 106   17:00   0.23   57.1    31    4.3    34     7.2   824.3    0.00 
 106   17:10   0.07   55.9    31    3.8    62     7.0   824.3    0.00 
 106   17:20   0.09   55.6    30    1.5    90     4.6   824.3    0.00 
 106   17:30   0.04   55.6    30    1.3    57     2.3   824.3    0.00 
 106   17:40   0.02   54.6    32    0.6   347     1.7   824.4    0.00 
 106   17:50   0.02   54.1    31    0.0     0     0.0   824.4    0.00 
 106   18:00   0.01   52.3    36    1.8   243     4.7   824.4    0.00 
 106   18:10   0.01   48.9    47    5.6   261     6.7   824.4    0.00 
 106   18:20   0.00   47.6    50    5.7   265     6.6   824.5    0.00 
 106   18:30   0.00   46.2    52    5.8   255     7.2   824.5    0.00 
 106   18:40   0.00   46.3    51    5.8   261     7.1   824.5    0.00 
 106   18:50   0.00   45.8    51    5.9   252     6.8   824.5    0.00 
 106   19:00   0.00   45.6    50    6.3   255     7.5   824.6    0.00 
 106   19:10   0.00   45.7    50    5.9   284    11.0   824.7    0.00 
 106   19:20   0.00   46.4    47    6.0   311     9.3   824.8    0.00 
 106   19:30   0.00   47.9    42    7.3   327    10.2   825.0    0.00 
 106   19:40   0.00   48.4    40    7.3   336     9.8   825.1    0.00 
 106   19:50   0.00   47.8    40    6.7   336     8.8   825.2    0.00 
 106   20:00   0.00   47.2    41    5.7   335     8.2   825.3    0.00 
 106   20:10   0.00   46.9    41    6.4   331     8.1   825.4    0.00 
 106   20:20   0.00   46.7    41    7.0   336     9.6   825.4    0.00 
 106   20:30   0.00   46.9    40    9.4   341    13.9   825.5    0.00 
 106   20:40   0.00   46.8    39    9.6   337    14.1   825.7    0.00 
 106   20:50   0.00   46.5    39    8.2   335    11.2   825.8    0.00 
 106   21:00   0.00   46.7    39    8.6   341    11.3   825.9    0.00 
 106   21:10   0.00   46.7    38    9.0   341    13.6   825.9    0.00 
 106   21:20   0.00   46.4    38    9.4   349    13.4   826.0    0.00 
 106   21:30   0.00   45.9    38    9.2   338    12.6   826.1    0.00 
 106   21:40   0.00   45.9    39    8.0   327    10.8   826.1    0.00 
 106   21:50   0.00   45.4    39    6.5   322     9.4   826.1    0.00 
 106   22:00   0.00   44.5    42    4.9   307     6.9   826.1    0.00 
 106   22:10   0.00   44.7    41    4.7   306     7.5   826.1    0.00 
 106   22:20   0.00   43.8    44    5.4   312     8.2   826.1    0.00 
 106   22:30   0.00   43.9    43    5.4   320     7.1   826.1    0.00 
 106   22:40   0.00   42.4    47    5.6   305     6.4   826.2    0.00 
 106   22:50   0.00   42.7    47    6.1   292     7.2   826.2    0.00 
 106   23:00   0.00   41.9    49    6.2   278     7.2   826.2    0.00 
 106   23:10   0.00   41.4    52    5.5   265     7.4   826.2    0.00 
 106   23:20   0.00   40.5    51    4.2   213     5.8   826.2    0.00 
 106   23:30   0.00   37.6    54    0.7   285     2.6   826.2    0.00 
 106   23:40   0.00   37.8    52    1.1    78     3.5   826.2    0.00 
 106   23:50   0.00   36.8    53    1.4   176     2.5   826.2    0.00 
 107    0:00   0.00   36.8    54    2.1   277     3.4   826.1    0.00 
 107    0:10   0.00   36.6    55    3.5   278     4.5   826.1    0.00 
 107    0:20   0.00   36.6    56    0.9   301     2.1   826.0    0.00 
 107    0:30   0.00   37.2    55    0.3   323     0.9   825.9    0.00 
 107    0:40   0.00   37.1    55    1.7   297     3.1   826.0    0.00 
 107    0:50   0.00   37.7    54    3.1   299     3.9   825.9    0.00 
 107    1:00   0.00   34.8    61    5.3   281     7.3   825.9    0.00 
 107    1:10   0.00   33.8    66    5.2   273     6.6   825.7    0.00 
 107    1:20   0.00   36.2    61    4.6   269     6.4   825.6    0.00 
 107    1:30   0.00   36.3    61    5.1   264     6.6   825.6    0.00 
 107    1:40   0.00   33.5    63    2.2   131     4.1   825.6    0.00 
 107    1:50   0.00   31.9    67    1.3   263     3.7   825.5    0.00 
 107    2:00   0.00   33.9    64    1.1   332     2.5   825.5    0.00 
 107    2:10   0.00   33.9    63    0.0   117     0.4   825.6    0.00 
 107    2:20   0.00   33.5    64    0.6   178     1.8   825.6    0.00 
 107    2:30   0.00   33.7    64    0.5   251     1.3   825.6    0.00 
 107    2:40   0.00   33.4    64    1.5   230     3.7   825.7    0.00 
 107    2:50   0.00   32.2    66    1.3   239     3.9   825.7    0.00 
 107    3:00   0.00   29.9    73    1.3   202     2.4   825.8    0.00 
 107    3:10   0.00   31.4    71    2.7   259     4.6   825.9    0.00 
 107    3:20   0.00   32.4    69    2.6   241     4.9   825.9    0.00 
 107    3:30   0.00   32.6    68    0.8   193     2.2   826.0    0.00 
 107    3:40   0.00   33.2    67    4.1   206     5.6   826.1    0.00 
 107    3:50   0.00   32.6    68    4.1   240     5.4   826.1    0.00 
 107    4:00   0.00   31.4    69    3.5   194     4.5   826.1    0.00 
 107    4:10   0.00   30.8    70    3.1   169     5.0   826.2    0.00 
 107    4:20   0.00   31.2    72    1.8   292     2.8   826.3    0.00 
 107    4:30   0.00   31.4    72    3.8   308     5.3   826.3    0.00 
 107    4:40   0.00   30.9    73    2.0   243     3.7   826.4    0.00 
 107    4:50   0.00   29.9    74    0.7   282     2.3   826.6    0.00 
 107    5:00   0.01   29.7    74    1.3   136     2.8   826.6    0.00 
 107    5:10   0.01   30.7    72    1.7   192     3.2   826.8    0.00 
 107    5:20   0.02   30.8    71    2.6   213     5.5   826.8    0.00 
 107    5:30   0.05   31.2    71    1.6   107     5.0   826.9    0.00 
 107    5:40   0.07   32.3    67    2.0    32     3.1   826.9    0.00 
 107    5:50   0.10   33.2    67    2.4   322     4.8   827.0    0.00 
 107    6:00   0.13   34.6    66    3.1   316     5.1   826.9    0.00 
 107    6:10   0.18   37.2    61    1.6     4     2.9   826.9    0.00 
 107    6:20   0.21   39.4    58    1.0    67     2.6   826.9    0.00 
 107    6:30   0.25   41.0    54    0.9    71     3.4   827.0    0.00 
 107    6:40   0.28   40.7    52    3.1     9     4.5   827.0    0.00 
 107    6:50   0.32   41.0    50    2.9    44     4.5   827.2    0.00 
 107    7:00   0.36   42.6    48    1.2    74     2.9   827.3    0.00 
 107    7:10   0.40   44.4    46    1.0   100     2.4   827.4    0.00 
 107    7:20   0.43   45.8    45    1.1    28     3.6   827.4    0.00 
 107    7:30   0.47   46.4    45    0.9    56     2.6   827.5    0.00 
 107    7:40   0.51   47.2    43    3.4   146     6.4   827.4    0.00 
 107    7:50   0.54   47.8    42    3.1   146     5.6   827.4    0.00 
 107    8:00   0.58   48.4    41    2.3   118     5.7   827.4    0.00 
 107    8:10   0.61   50.5    39    1.3   156     4.7   827.3    0.00 
 107    8:20   0.63   50.8    38    2.1   120     5.1   827.3    0.00 
 107    8:30   0.67   51.2    37    3.0   125     6.8   827.3    0.00 
 107    8:40   0.68   51.8    37    4.4   137     7.7   827.3    0.00 
 107    8:50   0.73   52.9    36    2.4   147     5.5   827.2    0.00 
 107    9:00   0.74   54.7    34    3.6   150     7.6   827.2    0.00 
 107    9:10   0.75   54.8    33    3.2   163     8.0   827.1    0.00 
 107    9:20   0.82   55.9    32    2.6   117     6.8   827.0    0.00 
 107    9:30   0.80   55.9    32    4.0   114     8.7   827.0    0.00 
 107    9:40   0.84   56.1    32    3.6    91     6.6   826.9    0.00 
 107    9:50   0.88   57.0    31    3.3   115     7.7   826.8    0.00 
 107   10:00   0.90   58.4    30    4.6   143     9.3   826.7    0.00 
 107   10:10   0.88   58.7    29    4.3   144    10.9   826.5    0.00 

Return to North Spring Valley graphs page.


Western Regional Climate Center,wrcc@dri.edu